Mid Missouri, Missouri
Current Conditions -  °F | °C
As of 1:54 AM on Tuesday 21 Oct 2014 (Local Time) from KCOU Reporting Station
Clear Clear  
Wind Chill: 52°   Ceiling: Unl
Heat Index: 52°   Visibility: 9mi
Dew Point: 43°   Wind: 6mph
Humidity: 71%   Direction: 270°W
Pressure: 30.07"   Gusts: NA
Location:  39.02°N, 92.25°W
Report Text: KCOU 210654Z AUTO 27005KT 9SM CLR 11/06 A3007 RMK AO2 SLP177 T01110061
Loading
Personal Weather Stations






























Interactive Weather Map
Tropical Storm Tracking
New forecast layout! Learn more

10-Day Weather Forecast

Advertisements
Track Severe Weather on mobile